sensor_id;sensor_type;location;lat;lon;timestamp;P1;durP1;ratioP1;P2;durP2;ratioP2
35434;SDS011;21556;55.782;37.528;2023-05-29T00:00:12;7.15;;;3.33;;
35434;SDS011;21556;55.782;37.528;2023-05-29T00:02:39;4.57;;;2.85;;
35434;SDS011;21556;55.782;37.528;2023-05-29T00:05:12;5.40;;;2.58;;
35434;SDS011;21556;55.782;37.528;2023-05-29T00:07:41;3.83;;;2.60;;
35434;SDS011;21556;55.782;37.528;2023-05-29T00:10:09;10.27;;;2.95;;
35434;SDS011;21556;55.782;37.528;2023-05-29T00:12:38;9.70;;;2.70;;
35434;SDS011;21556;55.782;37.528;2023-05-29T00:15:05;6.18;;;2.63;;
35434;SDS011;21556;55.782;37.528;2023-05-29T00:17:36;10.85;;;2.55;;
35434;SDS011;21556;55.782;37.528;2023-05-29T00:20:03;6.78;;;2.72;;
35434;SDS011;21556;55.782;37.528;2023-05-29T00:22:35;3.95;;;2.58;;
35434;SDS011;21556;55.782;37.528;2023-05-29T00:25:07;5.10;;;2.72;;
35434;SDS011;21556;55.782;37.528;2023-05-29T00:27:38;4.35;;;2.33;;
35434;SDS011;21556;55.782;37.528;2023-05-29T00:30:06;5.07;;;2.45;;
35434;SDS011;21556;55.782;37.528;2023-05-29T00:32:35;5.38;;;2.33;;
35434;SDS011;21556;55.782;37.528;2023-05-29T00:35:31;5.40;;;2.50;;
35434;SDS011;21556;55.782;37.528;2023-05-29T00:37:57;4.68;;;2.40;;
35434;SDS011;21556;55.782;37.528;2023-05-29T00:40:24;7.93;;;2.50;;
35434;SDS011;21556;55.782;37.528;2023-05-29T00:42:52;4.68;;;2.28;;
35434;SDS011;21556;55.782;37.528;2023-05-29T00:45:18;3.72;;;2.30;;
35434;SDS011;21556;55.782;37.528;2023-05-29T00:47:44;5.88;;;2.00;;
35434;SDS011;21556;55.782;37.528;2023-05-29T00:50:15;4.82;;;2.70;;
35434;SDS011;21556;55.782;37.528;2023-05-29T00:52:43;5.78;;;2.58;;
35434;SDS011;21556;55.782;37.528;2023-05-29T00:55:12;2.88;;;2.13;;
35434;SDS011;21556;55.782;37.528;2023-05-29T00:57:40;5.88;;;2.60;;
35434;SDS011;21556;55.782;37.528;2023-05-29T01:00:06;8.00;;;3.75;;
35434;SDS011;21556;55.782;37.528;2023-05-29T01:02:42;4.07;;;2.28;;
35434;SDS011;21556;55.782;37.528;2023-05-29T01:05:11;5.50;;;2.92;;
35434;SDS011;21556;55.782;37.528;2023-05-29T01:07:38;6.50;;;2.35;;
35434;SDS011;21556;55.782;37.528;2023-05-29T01:10:05;4.43;;;2.38;;
35434;SDS011;21556;55.782;37.528;2023-05-29T01:18:18;6.20;;;3.60;;
35434;SDS011;21556;55.782;37.528;2023-05-29T01:21:08;3.65;;;2.17;;
35434;SDS011;21556;55.782;37.528;2023-05-29T01:23:51;7.13;;;2.75;;
35434;SDS011;21556;55.782;37.528;2023-05-29T01:26:48;4.53;;;1.77;;
35434;SDS011;21556;55.782;37.528;2023-05-29T01:29:23;4.80;;;2.78;;
35434;SDS011;21556;55.782;37.528;2023-05-29T01:31:54;4.32;;;2.28;;
35434;SDS011;21556;55.782;37.528;2023-05-29T01:34:21;4.95;;;2.05;;
35434;SDS011;21556;55.782;37.528;2023-05-29T01:36:47;7.75;;;2.50;;
35434;SDS011;21556;55.782;37.528;2023-05-29T01:39:13;6.90;;;2.60;;
35434;SDS011;21556;55.782;37.528;2023-05-29T01:41:40;7.70;;;2.30;;
35434;SDS011;21556;55.782;37.528;2023-05-29T01:44:09;3.63;;;2.38;;
35434;SDS011;21556;55.782;37.528;2023-05-29T01:46:42;5.65;;;2.45;;
35434;SDS011;21556;55.782;37.528;2023-05-29T01:49:28;3.88;;;2.35;;
35434;SDS011;21556;55.782;37.528;2023-05-29T01:51:58;5.38;;;2.90;;
35434;SDS011;21556;55.782;37.528;2023-05-29T01:54:24;6.45;;;2.65;;
35434;SDS011;21556;55.782;37.528;2023-05-29T01:56:51;4.07;;;2.47;;
35434;SDS011;21556;55.782;37.528;2023-05-29T01:59:19;5.97;;;2.17;;
35434;SDS011;21556;55.782;37.528;2023-05-29T02:01:48;5.82;;;2.80;;
35434;SDS011;21556;55.782;37.528;2023-05-29T02:04:14;5.95;;;2.78;;
35434;SDS011;21556;55.782;37.528;2023-05-29T02:06:40;3.90;;;2.40;;
35434;SDS011;21556;55.782;37.528;2023-05-29T02:09:08;4.90;;;2.17;;
35434;SDS011;21556;55.782;37.528;2023-05-29T02:11:36;6.40;;;2.80;;
35434;SDS011;21556;55.782;37.528;2023-05-29T02:14:02;7.32;;;2.80;;
35434;SDS011;21556;55.782;37.528;2023-05-29T02:16:29;5.10;;;2.63;;
35434;SDS011;21556;55.782;37.528;2023-05-29T02:19:00;6.68;;;2.90;;
35434;SDS011;21556;55.782;37.528;2023-05-29T02:21:48;6.93;;;3.00;;
35434;SDS011;21556;55.782;37.528;2023-05-29T02:24:15;4.57;;;2.63;;
35434;SDS011;21556;55.782;37.528;2023-05-29T02:26:41;3.80;;;2.10;;
35434;SDS011;21556;55.782;37.528;2023-05-29T02:29:09;5.97;;;2.40;;
35434;SDS011;21556;55.782;37.528;2023-05-29T02:31:37;4.75;;;2.40;;
35434;SDS011;21556;55.782;37.528;2023-05-29T02:34:06;5.82;;;2.55;;
35434;SDS011;21556;55.782;37.528;2023-05-29T02:36:33;5.40;;;2.47;;
35434;SDS011;21556;55.782;37.528;2023-05-29T02:39:05;5.30;;;2.53;;
35434;SDS011;21556;55.782;37.528;2023-05-29T02:41:31;5.25;;;2.53;;
35434;SDS011;21556;55.782;37.528;2023-05-29T02:43:58;5.60;;;2.88;;
35434;SDS011;21556;55.782;37.528;2023-05-29T02:46:24;6.40;;;2.97;;
35434;SDS011;21556;55.782;37.528;2023-05-29T02:48:50;3.00;;;2.17;;
35434;SDS011;21556;55.782;37.528;2023-05-29T02:51:37;5.53;;;3.10;;
35434;SDS011;21556;55.782;37.528;2023-05-29T02:54:04;5.93;;;2.55;;
35434;SDS011;21556;55.782;37.528;2023-05-29T02:56:30;5.60;;;2.83;;
35434;SDS011;21556;55.782;37.528;2023-05-29T02:58:58;3.70;;;2.57;;
35434;SDS011;21556;55.782;37.528;2023-05-29T03:01:24;4.70;;;2.45;;
35434;SDS011;21556;55.782;37.528;2023-05-29T03:03:53;7.97;;;2.33;;
35434;SDS011;21556;55.782;37.528;2023-05-29T03:06:20;8.85;;;2.58;;
35434;SDS011;21556;55.782;37.528;2023-05-29T03:08:46;7.35;;;3.22;;
35434;SDS011;21556;55.782;37.528;2023-05-29T03:11:13;5.20;;;3.30;;
35434;SDS011;21556;55.782;37.528;2023-05-29T03:13:43;7.47;;;2.55;;
35434;SDS011;21556;55.782;37.528;2023-05-29T03:16:12;5.00;;;2.05;;
35434;SDS011;21556;55.782;37.528;2023-05-29T03:18:40;3.97;;;2.08;;
35434;SDS011;21556;55.782;37.528;2023-05-29T03:21:07;3.17;;;1.90;;
35434;SDS011;21556;55.782;37.528;2023-05-29T03:23:35;8.05;;;2.35;;
35434;SDS011;21556;55.782;37.528;2023-05-29T03:26:01;3.33;;;1.98;;
35434;SDS011;21556;55.782;37.528;2023-05-29T03:28:32;5.28;;;2.33;;
35434;SDS011;21556;55.782;37.528;2023-05-29T03:31:02;4.13;;;2.15;;
35434;SDS011;21556;55.782;37.528;2023-05-29T03:33:28;6.90;;;3.17;;
35434;SDS011;21556;55.782;37.528;2023-05-29T03:36:13;4.13;;;2.17;;
35434;SDS011;21556;55.782;37.528;2023-05-29T03:38:39;5.47;;;2.53;;
35434;SDS011;21556;55.782;37.528;2023-05-29T03:41:06;6.63;;;2.38;;
35434;SDS011;21556;55.782;37.528;2023-05-29T03:43:40;8.18;;;2.38;;
35434;SDS011;21556;55.782;37.528;2023-05-29T03:46:06;4.05;;;2.42;;
35434;SDS011;21556;55.782;37.528;2023-05-29T03:48:36;3.38;;;2.22;;
35434;SDS011;21556;55.782;37.528;2023-05-29T03:51:07;3.55;;;2.03;;
35434;SDS011;21556;55.782;37.528;2023-05-29T03:53:36;5.18;;;2.00;;
35434;SDS011;21556;55.782;37.528;2023-05-29T03:56:07;6.28;;;3.47;;
35434;SDS011;21556;55.782;37.528;2023-05-29T03:58:51;6.10;;;2.42;;
35434;SDS011;21556;55.782;37.528;2023-05-29T04:01:24;2.85;;;2.15;;
35434;SDS011;21556;55.782;37.528;2023-05-29T04:03:53;4.25;;;2.60;;
35434;SDS011;21556;55.782;37.528;2023-05-29T04:06:24;7.18;;;2.22;;
35434;SDS011;21556;55.782;37.528;2023-05-29T04:08:50;8.13;;;2.45;;
35434;SDS011;21556;55.782;37.528;2023-05-29T04:11:19;16.40;;;2.60;;
35434;SDS011;21556;55.782;37.528;2023-05-29T04:13:54;3.60;;;1.90;;
35434;SDS011;21556;55.782;37.528;2023-05-29T04:16:23;5.82;;;2.10;;
35434;SDS011;21556;55.782;37.528;2023-05-29T04:18:55;3.28;;;1.65;;
35434;SDS011;21556;55.782;37.528;2023-05-29T04:21:24;4.55;;;2.10;;
35434;SDS011;21556;55.782;37.528;2023-05-29T04:23:52;3.67;;;2.13;;
35434;SDS011;21556;55.782;37.528;2023-05-29T04:26:21;2.85;;;2.05;;
35434;SDS011;21556;55.782;37.528;2023-05-29T04:29:11;5.45;;;2.05;;
35434;SDS011;21556;55.782;37.528;2023-05-29T04:31:39;5.60;;;2.10;;
35434;SDS011;21556;55.782;37.528;2023-05-29T04:34:07;5.05;;;2.47;;
35434;SDS011;21556;55.782;37.528;2023-05-29T04:36:39;4.65;;;2.42;;
35434;SDS011;21556;55.782;37.528;2023-05-29T04:39:16;5.75;;;2.38;;
35434;SDS011;21556;55.782;37.528;2023-05-29T04:41:43;4.43;;;2.38;;
35434;SDS011;21556;55.782;37.528;2023-05-29T04:44:18;7.55;;;2.42;;
35434;SDS011;21556;55.782;37.528;2023-05-29T04:46:50;4.63;;;2.33;;
35434;SDS011;21556;55.782;37.528;2023-05-29T04:49:18;4.03;;;2.17;;
35434;SDS011;21556;55.782;37.528;2023-05-29T04:51:46;8.15;;;2.28;;
35434;SDS011;21556;55.782;37.528;2023-05-29T04:54:12;6.40;;;2.58;;
35434;SDS011;21556;55.782;37.528;2023-05-29T04:56:40;3.67;;;2.53;;
35434;SDS011;21556;55.782;37.528;2023-05-29T04:59:11;6.72;;;2.47;;
35434;SDS011;21556;55.782;37.528;2023-05-29T05:02:00;6.35;;;2.85;;
35434;SDS011;21556;55.782;37.528;2023-05-29T05:04:42;4.68;;;2.50;;
35434;SDS011;21556;55.782;37.528;2023-05-29T05:07:12;6.25;;;2.33;;
35434;SDS011;21556;55.782;37.528;2023-05-29T05:09:45;4.25;;;2.20;;
35434;SDS011;21556;55.782;37.528;2023-05-29T05:12:20;6.47;;;2.00;;
35434;SDS011;21556;55.782;37.528;2023-05-29T05:15:14;4.65;;;1.90;;
35434;SDS011;21556;55.782;37.528;2023-05-29T05:17:49;4.38;;;2.13;;
35434;SDS011;21556;55.782;37.528;2023-05-29T05:20:17;5.60;;;2.50;;
35434;SDS011;21556;55.782;37.528;2023-05-29T05:23:00;7.00;;;2.20;;
35434;SDS011;21556;55.782;37.528;2023-05-29T05:25:38;7.30;;;2.80;;
35434;SDS011;21556;55.782;37.528;2023-05-29T05:28:08;7.13;;;2.67;;
35434;SDS011;21556;55.782;37.528;2023-05-29T05:30:38;9.55;;;2.53;;
35434;SDS011;21556;55.782;37.528;2023-05-29T05:33:06;4.97;;;2.23;;
35434;SDS011;21556;55.782;37.528;2023-05-29T05:35:33;6.45;;;1.95;;
35434;SDS011;21556;55.782;37.528;2023-05-29T05:37:59;4.53;;;2.05;;
35434;SDS011;21556;55.782;37.528;2023-05-29T05:40:27;3.92;;;2.00;;
35434;SDS011;21556;55.782;37.528;2023-05-29T05:43:00;3.55;;;1.75;;
35434;SDS011;21556;55.782;37.528;2023-05-29T05:45:46;4.90;;;2.15;;
35434;SDS011;21556;55.782;37.528;2023-05-29T05:48:15;7.18;;;2.30;;
35434;SDS011;21556;55.782;37.528;2023-05-29T05:50:42;5.53;;;1.80;;
35434;SDS011;21556;55.782;37.528;2023-05-29T05:53:09;6.78;;;2.05;;
35434;SDS011;21556;55.782;37.528;2023-05-29T05:58:28;5.78;;;1.75;;
35434;SDS011;21556;55.782;37.528;2023-05-29T06:00:55;2.80;;;1.67;;
35434;SDS011;21556;55.782;37.528;2023-05-29T06:06:00;5.57;;;1.80;;
35434;SDS011;21556;55.782;37.528;2023-05-29T06:08:28;5.90;;;2.00;;
35434;SDS011;21556;55.782;37.528;2023-05-29T06:10:56;4.57;;;1.60;;
35434;SDS011;21556;55.782;37.528;2023-05-29T06:13:23;3.78;;;1.75;;
35434;SDS011;21556;55.782;37.528;2023-05-29T06:16:21;5.05;;;1.30;;
35434;SDS011;21556;55.782;37.528;2023-05-29T06:18:50;3.28;;;1.30;;
35434;SDS011;21556;55.782;37.528;2023-05-29T06:21:18;3.67;;;1.77;;
35434;SDS011;21556;55.782;37.528;2023-05-29T06:23:56;5.90;;;1.38;;
35434;SDS011;21556;55.782;37.528;2023-05-29T06:26:28;4.60;;;1.70;;
35434;SDS011;21556;55.782;37.528;2023-05-29T06:28:56;6.45;;;1.40;;
35434;SDS011;21556;55.782;37.528;2023-05-29T06:31:23;3.97;;;1.20;;
35434;SDS011;21556;55.782;37.528;2023-05-29T06:33:51;4.13;;;1.25;;
35434;SDS011;21556;55.782;37.528;2023-05-29T06:36:22;3.42;;;1.10;;
35434;SDS011;21556;55.782;37.528;2023-05-29T06:38:48;3.42;;;0.80;;
35434;SDS011;21556;55.782;37.528;2023-05-29T06:41:17;5.03;;;0.88;;
35434;SDS011;21556;55.782;37.528;2023-05-29T06:43:45;2.75;;;2.00;;
35434;SDS011;21556;55.782;37.528;2023-05-29T06:46:15;3.45;;;1.55;;
35434;SDS011;21556;55.782;37.528;2023-05-29T06:48:43;5.63;;;1.00;;
35434;SDS011;21556;55.782;37.528;2023-05-29T06:51:10;2.47;;;1.05;;
35434;SDS011;21556;55.782;37.528;2023-05-29T06:53:40;5.97;;;0.82;;
35434;SDS011;21556;55.782;37.528;2023-05-29T06:58:36;5.57;;;1.20;;
35434;SDS011;21556;55.782;37.528;2023-05-29T07:04:43;2.45;;;0.90;;
35434;SDS011;21556;55.782;37.528;2023-05-29T07:07:09;4.95;;;1.35;;
35434;SDS011;21556;55.782;37.528;2023-05-29T07:09:37;2.22;;;1.00;;
35434;SDS011;21556;55.782;37.528;2023-05-29T07:12:05;5.53;;;1.00;;
35434;SDS011;21556;55.782;37.528;2023-05-29T07:14:34;7.18;;;1.30;;
35434;SDS011;21556;55.782;37.528;2023-05-29T07:17:01;2.38;;;0.88;;
35434;SDS011;21556;55.782;37.528;2023-05-29T07:19:27;2.47;;;0.85;;
35434;SDS011;21556;55.782;37.528;2023-05-29T07:21:55;2.87;;;1.20;;
35434;SDS011;21556;55.782;37.528;2023-05-29T07:24:23;3.03;;;1.08;;
35434;SDS011;21556;55.782;37.528;2023-05-29T07:26:50;6.22;;;1.55;;
35434;SDS011;21556;55.782;37.528;2023-05-29T07:29:20;2.85;;;1.30;;
35434;SDS011;21556;55.782;37.528;2023-05-29T07:31:50;1.95;;;1.23;;
35434;SDS011;21556;55.782;37.528;2023-05-29T07:34:19;4.93;;;1.10;;
35434;SDS011;21556;55.782;37.528;2023-05-29T07:37:05;4.72;;;1.38;;
35434;SDS011;21556;55.782;37.528;2023-05-29T07:39:34;4.68;;;1.23;;
35434;SDS011;21556;55.782;37.528;2023-05-29T07:42:10;1.92;;;1.17;;
35434;SDS011;21556;55.782;37.528;2023-05-29T07:44:48;1.58;;;0.80;;
35434;SDS011;21556;55.782;37.528;2023-05-29T07:55:17;3.55;;;1.10;;
35434;SDS011;21556;55.782;37.528;2023-05-29T07:57:46;3.78;;;1.20;;
35434;SDS011;21556;55.782;37.528;2023-05-29T08:00:12;9.20;;;3.92;;
35434;SDS011;21556;55.782;37.528;2023-05-29T08:02:46;6.38;;;2.95;;
35434;SDS011;21556;55.782;37.528;2023-05-29T08:05:35;2.67;;;1.20;;
35434;SDS011;21556;55.782;37.528;2023-05-29T08:08:07;5.75;;;1.50;;
35434;SDS011;21556;55.782;37.528;2023-05-29T08:10:34;3.42;;;1.33;;
35434;SDS011;21556;55.782;37.528;2023-05-29T08:13:02;5.35;;;1.67;;
35434;SDS011;21556;55.782;37.528;2023-05-29T08:15:31;3.53;;;1.30;;
35434;SDS011;21556;55.782;37.528;2023-05-29T08:17:58;5.90;;;1.80;;
35434;SDS011;21556;55.782;37.528;2023-05-29T08:20:26;6.15;;;1.23;;
35434;SDS011;21556;55.782;37.528;2023-05-29T08:22:53;5.83;;;1.20;;
35434;SDS011;21556;55.782;37.528;2023-05-29T08:25:21;2.47;;;1.17;;
35434;SDS011;21556;55.782;37.528;2023-05-29T08:27:48;3.13;;;1.52;;
35434;SDS011;21556;55.782;37.528;2023-05-29T08:30:19;4.10;;;1.30;;
35434;SDS011;21556;55.782;37.528;2023-05-29T08:32:45;3.75;;;1.42;;
35434;SDS011;21556;55.782;37.528;2023-05-29T08:35:14;9.77;;;1.50;;
35434;SDS011;21556;55.782;37.528;2023-05-29T08:37:41;3.20;;;1.30;;
35434;SDS011;21556;55.782;37.528;2023-05-29T08:40:07;7.53;;;1.75;;
35434;SDS011;21556;55.782;37.528;2023-05-29T08:42:35;3.13;;;1.25;;
35434;SDS011;21556;55.782;37.528;2023-05-29T08:45:05;3.40;;;1.08;;
35434;SDS011;21556;55.782;37.528;2023-05-29T08:47:34;3.47;;;1.38;;
35434;SDS011;21556;55.782;37.528;2023-05-29T08:50:07;5.00;;;1.08;;
35434;SDS011;21556;55.782;37.528;2023-05-29T08:52:35;2.15;;;1.05;;
35434;SDS011;21556;55.782;37.528;2023-05-29T08:55:01;3.38;;;0.90;;
35434;SDS011;21556;55.782;37.528;2023-05-29T08:57:32;3.47;;;0.88;;
35434;SDS011;21556;55.782;37.528;2023-05-29T09:03:34;4.50;;;1.10;;
35434;SDS011;21556;55.782;37.528;2023-05-29T09:06:07;2.65;;;0.80;;
35434;SDS011;21556;55.782;37.528;2023-05-29T09:08:36;2.65;;;0.90;;
35434;SDS011;21556;55.782;37.528;2023-05-29T09:11:04;1.92;;;0.98;;
35434;SDS011;21556;55.782;37.528;2023-05-29T09:13:31;1.67;;;0.90;;
35434;SDS011;21556;55.782;37.528;2023-05-29T09:16:01;3.05;;;0.90;;
35434;SDS011;21556;55.782;37.528;2023-05-29T09:18:32;3.05;;;0.90;;
35434;SDS011;21556;55.782;37.528;2023-05-29T09:20:59;3.10;;;1.20;;
35434;SDS011;21556;55.782;37.528;2023-05-29T09:23:25;2.80;;;0.88;;
35434;SDS011;21556;55.782;37.528;2023-05-29T09:25:52;1.65;;;1.10;;
35434;SDS011;21556;55.782;37.528;2023-05-29T09:28:23;2.50;;;1.02;;
35434;SDS011;21556;55.782;37.528;2023-05-29T09:30:52;1.13;;;0.90;;
35434;SDS011;21556;55.782;37.528;2023-05-29T09:33:20;2.35;;;1.13;;
35434;SDS011;21556;55.782;37.528;2023-05-29T09:35:49;3.83;;;1.00;;
35434;SDS011;21556;55.782;37.528;2023-05-29T09:38:16;8.20;;;1.45;;
35434;SDS011;21556;55.782;37.528;2023-05-29T09:40:44;4.50;;;1.30;;
35434;SDS011;21556;55.782;37.528;2023-05-29T09:45:44;2.20;;;0.60;;
35434;SDS011;21556;55.782;37.528;2023-05-29T09:48:12;1.85;;;0.90;;
35434;SDS011;21556;55.782;37.528;2023-05-29T09:50:45;2.88;;;1.08;;
35434;SDS011;21556;55.782;37.528;2023-05-29T09:53:24;2.35;;;1.05;;
35434;SDS011;21556;55.782;37.528;2023-05-29T09:55:55;1.80;;;1.20;;
35434;SDS011;21556;55.782;37.528;2023-05-29T09:58:26;1.95;;;1.23;;
35434;SDS011;21556;55.782;37.528;2023-05-29T10:00:52;2.88;;;0.88;;
35434;SDS011;21556;55.782;37.528;2023-05-29T10:03:20;2.92;;;0.85;;
35434;SDS011;21556;55.782;37.528;2023-05-29T10:05:50;1.88;;;0.88;;
35434;SDS011;21556;55.782;37.528;2023-05-29T10:08:19;2.25;;;0.95;;
35434;SDS011;21556;55.782;37.528;2023-05-29T10:10:48;1.52;;;0.77;;
35434;SDS011;21556;55.782;37.528;2023-05-29T10:13:19;4.80;;;1.08;;
35434;SDS011;21556;55.782;37.528;2023-05-29T10:15:49;2.13;;;1.13;;
35434;SDS011;21556;55.782;37.528;2023-05-29T10:18:31;2.42;;;1.00;;
35434;SDS011;21556;55.782;37.528;2023-05-29T10:21:11;2.42;;;1.00;;
35434;SDS011;21556;55.782;37.528;2023-05-29T10:26:14;3.50;;;1.17;;
35434;SDS011;21556;55.782;37.528;2023-05-29T10:29:10;1.20;;;0.80;;
35434;SDS011;21556;55.782;37.528;2023-05-29T10:40:06;1.42;;;0.80;;
35434;SDS011;21556;55.782;37.528;2023-05-29T10:42:47;3.13;;;1.55;;
35434;SDS011;21556;55.782;37.528;2023-05-29T10:50:38;2.55;;;1.10;;
35434;SDS011;21556;55.782;37.528;2023-05-29T10:53:07;3.35;;;1.20;;
35434;SDS011;21556;55.782;37.528;2023-05-29T10:55:36;4.30;;;1.23;;
35434;SDS011;21556;55.782;37.528;2023-05-29T10:58:10;2.85;;;1.20;;
35434;SDS011;21556;55.782;37.528;2023-05-29T11:00:40;3.00;;;0.95;;
35434;SDS011;21556;55.782;37.528;2023-05-29T11:03:09;3.38;;;1.08;;
35434;SDS011;21556;55.782;37.528;2023-05-29T11:08:46;3.30;;;1.13;;
35434;SDS011;21556;55.782;37.528;2023-05-29T11:11:14;1.92;;;1.08;;
35434;SDS011;21556;55.782;37.528;2023-05-29T11:14:03;4.25;;;1.40;;
35434;SDS011;21556;55.782;37.528;2023-05-29T11:19:03;2.40;;;1.02;;
35434;SDS011;21556;55.782;37.528;2023-05-29T11:26:52;2.88;;;1.27;;
35434;SDS011;21556;55.782;37.528;2023-05-29T11:29:28;2.42;;;1.10;;
35434;SDS011;21556;55.782;37.528;2023-05-29T11:31:57;1.90;;;1.15;;
35434;SDS011;21556;55.782;37.528;2023-05-29T11:34:28;4.95;;;1.20;;
35434;SDS011;21556;55.782;37.528;2023-05-29T11:36:59;1.52;;;1.17;;
35434;SDS011;21556;55.782;37.528;2023-05-29T11:39:28;4.03;;;1.13;;
35434;SDS011;21556;55.782;37.528;2023-05-29T11:44:23;3.07;;;0.83;;
35434;SDS011;21556;55.782;37.528;2023-05-29T11:47:00;2.33;;;1.15;;
35434;SDS011;21556;55.782;37.528;2023-05-29T11:49:36;3.70;;;0.95;;
35434;SDS011;21556;55.782;37.528;2023-05-29T11:52:06;3.03;;;1.20;;
35434;SDS011;21556;55.782;37.528;2023-05-29T11:54:38;4.70;;;1.33;;
35434;SDS011;21556;55.782;37.528;2023-05-29T11:57:04;3.58;;;1.20;;
35434;SDS011;21556;55.782;37.528;2023-05-29T11:59:33;3.83;;;1.13;;
35434;SDS011;21556;55.782;37.528;2023-05-29T12:02:02;4.28;;;1.40;;
35434;SDS011;21556;55.782;37.528;2023-05-29T12:04:29;2.85;;;1.25;;
35434;SDS011;21556;55.782;37.528;2023-05-29T12:06:58;4.85;;;1.45;;
35434;SDS011;21556;55.782;37.528;2023-05-29T12:09:27;3.40;;;1.00;;
35434;SDS011;21556;55.782;37.528;2023-05-29T12:12:00;2.38;;;1.40;;
35434;SDS011;21556;55.782;37.528;2023-05-29T12:14:33;2.65;;;1.30;;
35434;SDS011;21556;55.782;37.528;2023-05-29T12:17:01;3.40;;;1.23;;
35434;SDS011;21556;55.782;37.528;2023-05-29T12:19:28;2.25;;;1.55;;
35434;SDS011;21556;55.782;37.528;2023-05-29T12:21:56;2.20;;;0.93;;
35434;SDS011;21556;55.782;37.528;2023-05-29T12:24:23;2.17;;;1.10;;
35434;SDS011;21556;55.782;37.528;2023-05-29T12:26:49;3.75;;;1.30;;
35434;SDS011;21556;55.782;37.528;2023-05-29T12:29:20;3.00;;;1.65;;
35434;SDS011;21556;55.782;37.528;2023-05-29T12:31:58;2.08;;;1.13;;
35434;SDS011;21556;55.782;37.528;2023-05-29T12:34:26;2.40;;;1.30;;
35434;SDS011;21556;55.782;37.528;2023-05-29T12:36:54;4.60;;;1.25;;
35434;SDS011;21556;55.782;37.528;2023-05-29T12:39:29;3.42;;;1.13;;
35434;SDS011;21556;55.782;37.528;2023-05-29T12:42:00;2.47;;;1.00;;
35434;SDS011;21556;55.782;37.528;2023-05-29T12:44:56;3.03;;;1.20;;
35434;SDS011;21556;55.782;37.528;2023-05-29T12:48:10;3.25;;;1.10;;
35434;SDS011;21556;55.782;37.528;2023-05-29T12:50:37;3.72;;;1.23;;
35434;SDS011;21556;55.782;37.528;2023-05-29T12:53:05;2.90;;;1.10;;
35434;SDS011;21556;55.782;37.528;2023-05-29T12:58:04;2.42;;;1.13;;
35434;SDS011;21556;55.782;37.528;2023-05-29T13:00:31;3.77;;;1.30;;
35434;SDS011;21556;55.782;37.528;2023-05-29T13:02:59;3.67;;;1.05;;
35434;SDS011;21556;55.782;37.528;2023-05-29T13:05:27;3.47;;;1.05;;
35434;SDS011;21556;55.782;37.528;2023-05-29T13:07:55;1.75;;;1.00;;
35434;SDS011;21556;55.782;37.528;2023-05-29T13:10:22;2.78;;;1.08;;
35434;SDS011;21556;55.782;37.528;2023-05-29T13:12:49;2.50;;;1.30;;
35434;SDS011;21556;55.782;37.528;2023-05-29T13:15:19;4.88;;;1.45;;
35434;SDS011;21556;55.782;37.528;2023-05-29T13:17:46;3.25;;;1.05;;
35434;SDS011;21556;55.782;37.528;2023-05-29T13:20:15;3.25;;;1.10;;
35434;SDS011;21556;55.782;37.528;2023-05-29T13:22:50;2.08;;;1.40;;
35434;SDS011;21556;55.782;37.528;2023-05-29T13:25:17;6.70;;;1.27;;
35434;SDS011;21556;55.782;37.528;2023-05-29T13:27:47;2.72;;;1.08;;
35434;SDS011;21556;55.782;37.528;2023-05-29T13:30:31;2.08;;;0.90;;
35434;SDS011;21556;55.782;37.528;2023-05-29T13:33:02;3.47;;;0.88;;
35434;SDS011;21556;55.782;37.528;2023-05-29T13:35:41;4.80;;;1.50;;
35434;SDS011;21556;55.782;37.528;2023-05-29T13:38:23;3.05;;;1.52;;
35434;SDS011;21556;55.782;37.528;2023-05-29T13:40:58;4.63;;;1.02;;
35434;SDS011;21556;55.782;37.528;2023-05-29T13:43:25;4.03;;;2.00;;
35434;SDS011;21556;55.782;37.528;2023-05-29T13:45:52;1.90;;;1.00;;
35434;SDS011;21556;55.782;37.528;2023-05-29T13:48:23;1.83;;;1.15;;
35434;SDS011;21556;55.782;37.528;2023-05-29T13:50:49;2.00;;;1.05;;
35434;SDS011;21556;55.782;37.528;2023-05-29T13:53:17;2.80;;;1.20;;
35434;SDS011;21556;55.782;37.528;2023-05-29T13:55:44;4.18;;;1.20;;
35434;SDS011;21556;55.782;37.528;2023-05-29T14:00:38;4.45;;;1.50;;
35434;SDS011;21556;55.782;37.528;2023-05-29T14:03:08;2.20;;;1.35;;
35434;SDS011;21556;55.782;37.528;2023-05-29T14:05:55;3.83;;;1.30;;
35434;SDS011;21556;55.782;37.528;2023-05-29T14:08:22;5.53;;;1.52;;
35434;SDS011;21556;55.782;37.528;2023-05-29T14:10:49;3.42;;;0.90;;
35434;SDS011;21556;55.782;37.528;2023-05-29T14:13:23;5.75;;;1.38;;
35434;SDS011;21556;55.782;37.528;2023-05-29T14:15:49;5.70;;;1.15;;
35434;SDS011;21556;55.782;37.528;2023-05-29T14:18:15;1.83;;;1.00;;
35434;SDS011;21556;55.782;37.528;2023-05-29T14:20:41;3.88;;;0.93;;
35434;SDS011;21556;55.782;37.528;2023-05-29T14:23:07;2.83;;;1.08;;
35434;SDS011;21556;55.782;37.528;2023-05-29T14:25:39;1.40;;;1.17;;
35434;SDS011;21556;55.782;37.528;2023-05-29T14:28:05;2.97;;;1.27;;
35434;SDS011;21556;55.782;37.528;2023-05-29T14:30:32;3.33;;;1.23;;
35434;SDS011;21556;55.782;37.528;2023-05-29T14:32:59;5.25;;;1.27;;
35434;SDS011;21556;55.782;37.528;2023-05-29T14:35:28;6.07;;;1.30;;
35434;SDS011;21556;55.782;37.528;2023-05-29T14:40:22;3.85;;;1.27;;
35434;SDS011;21556;55.782;37.528;2023-05-29T14:42:49;6.03;;;2.47;;
35434;SDS011;21556;55.782;37.528;2023-05-29T14:45:16;8.57;;;1.90;;
35434;SDS011;21556;55.782;37.528;2023-05-29T14:47:43;5.05;;;3.40;;
35434;SDS011;21556;55.782;37.528;2023-05-29T14:50:11;3.47;;;1.15;;
35434;SDS011;21556;55.782;37.528;2023-05-29T14:52:37;4.00;;;1.40;;
35434;SDS011;21556;55.782;37.528;2023-05-29T14:55:06;3.33;;;1.20;;
35434;SDS011;21556;55.782;37.528;2023-05-29T14:57:35;2.90;;;1.30;;
35434;SDS011;21556;55.782;37.528;2023-05-29T15:00:02;3.17;;;1.05;;
35434;SDS011;21556;55.782;37.528;2023-05-29T15:02:33;5.57;;;1.33;;
35434;SDS011;21556;55.782;37.528;2023-05-29T15:05:00;4.75;;;1.35;;
35434;SDS011;21556;55.782;37.528;2023-05-29T15:07:27;5.47;;;1.50;;
35434;SDS011;21556;55.782;37.528;2023-05-29T15:09:56;2.08;;;1.17;;
35434;SDS011;21556;55.782;37.528;2023-05-29T15:12:26;3.08;;;1.13;;
35434;SDS011;21556;55.782;37.528;2023-05-29T15:14:53;2.38;;;1.08;;
35434;SDS011;21556;55.782;37.528;2023-05-29T15:17:22;7.00;;;1.00;;
35434;SDS011;21556;55.782;37.528;2023-05-29T15:19:49;7.88;;;2.15;;
35434;SDS011;21556;55.782;37.528;2023-05-29T15:22:16;2.50;;;1.33;;
35434;SDS011;21556;55.782;37.528;2023-05-29T15:24:42;6.13;;;1.58;;
35434;SDS011;21556;55.782;37.528;2023-05-29T15:27:09;5.03;;;2.72;;
35434;SDS011;21556;55.782;37.528;2023-05-29T15:29:35;4.22;;;1.50;;
35434;SDS011;21556;55.782;37.528;2023-05-29T15:32:02;3.63;;;1.33;;
35434;SDS011;21556;55.782;37.528;2023-05-29T15:34:35;5.85;;;1.80;;
35434;SDS011;21556;55.782;37.528;2023-05-29T15:37:04;3.25;;;1.55;;
35434;SDS011;21556;55.782;37.528;2023-05-29T15:39:34;2.35;;;1.25;;
35434;SDS011;21556;55.782;37.528;2023-05-29T15:42:03;2.47;;;1.30;;
35434;SDS011;21556;55.782;37.528;2023-05-29T15:44:35;3.10;;;1.10;;
35434;SDS011;21556;55.782;37.528;2023-05-29T15:47:02;3.35;;;1.38;;
35434;SDS011;21556;55.782;37.528;2023-05-29T15:49:28;2.42;;;0.90;;
35434;SDS011;21556;55.782;37.528;2023-05-29T15:51:56;2.50;;;1.00;;
35434;SDS011;21556;55.782;37.528;2023-05-29T15:54:22;3.13;;;1.17;;
35434;SDS011;21556;55.782;37.528;2023-05-29T15:56:49;2.70;;;1.17;;
35434;SDS011;21556;55.782;37.528;2023-05-29T15:59:15;5.63;;;1.70;;